sensor_id;sensor_type;location;lat;lon;timestamp;pressure;altitude;pressure_sealevel;temperature;humidity
71361;BME280;59166;48.908;1.870;2023-01-29T00:04:44;101801.53;;;0.02;92.48
71361;BME280;59166;48.908;1.870;2023-01-29T00:09:44;101805.31;;;-0.00;91.72
71361;BME280;59166;48.908;1.870;2023-01-29T00:14:46;101802.00;;;-0.02;92.58
71361;BME280;59166;48.908;1.870;2023-01-29T00:19:47;101806.47;;;-0.03;92.33
71361;BME280;59166;48.908;1.870;2023-01-29T00:24:47;101812.75;;;-0.04;92.66
71361;BME280;59166;48.908;1.870;2023-01-29T00:29:49;101814.44;;;-0.03;92.04
71361;BME280;59166;48.908;1.870;2023-01-29T00:34:50;101810.63;;;-0.00;91.94
71361;BME280;59166;48.908;1.870;2023-01-29T00:39:51;101820.91;;;-0.05;92.79
71361;BME280;59166;48.908;1.870;2023-01-29T00:44:52;101812.00;;;-0.14;92.88
71361;BME280;59166;48.908;1.870;2023-01-29T00:49:53;101808.03;;;-0.18;93.47
71361;BME280;59166;48.908;1.870;2023-01-29T00:54:55;101803.00;;;-0.21;93.15
71361;BME280;59166;48.908;1.870;2023-01-29T00:59:58;101798.00;;;-0.24;93.54
71361;BME280;59166;48.908;1.870;2023-01-29T01:04:58;101790.88;;;-0.23;93.85
71361;BME280;59166;48.908;1.870;2023-01-29T01:09:59;101788.66;;;-0.28;93.85
71361;BME280;59166;48.908;1.870;2023-01-29T01:15:01;101790.81;;;-0.31;94.38
71361;BME280;59166;48.908;1.870;2023-01-29T01:20:02;101791.25;;;-0.36;94.16
71361;BME280;59166;48.908;1.870;2023-01-29T01:25:03;101785.88;;;-0.44;94.88
71361;BME280;59166;48.908;1.870;2023-01-29T01:30:08;101780.44;;;-0.42;94.66
71361;BME280;59166;48.908;1.870;2023-01-29T01:35:09;101781.56;;;-0.45;95.91
71361;BME280;59166;48.908;1.870;2023-01-29T01:40:13;101800.75;;;-0.51;95.39
71361;BME280;59166;48.908;1.870;2023-01-29T01:45:20;101795.75;;;-0.54;95.76
71361;BME280;59166;48.908;1.870;2023-01-29T01:50:23;101807.34;;;-0.55;96.18
71361;BME280;59166;48.908;1.870;2023-01-29T01:55:27;101795.38;;;-0.59;96.11
71361;BME280;59166;48.908;1.870;2023-01-29T02:00:30;101808.63;;;-0.59;96.92
71361;BME280;59166;48.908;1.870;2023-01-29T02:05:33;101810.06;;;-0.65;97.04
71361;BME280;59166;48.908;1.870;2023-01-29T02:10:40;101811.50;;;-0.70;96.70
71361;BME280;59166;48.908;1.870;2023-01-29T02:15:43;101811.28;;;-0.77;96.57
71361;BME280;59166;48.908;1.870;2023-01-29T02:20:48;101805.00;;;-0.76;97.20
71361;BME280;59166;48.908;1.870;2023-01-29T02:26:06;101810.88;;;-0.82;97.00
71361;BME280;59166;48.908;1.870;2023-01-29T02:31:18;101805.72;;;-0.83;97.15
71361;BME280;59166;48.908;1.870;2023-01-29T02:36:31;101809.22;;;-0.83;98.22
71361;BME280;59166;48.908;1.870;2023-01-29T02:41:37;101799.06;;;-0.87;97.96
71361;BME280;59166;48.908;1.870;2023-01-29T02:46:46;101790.97;;;-0.86;98.05
71361;BME280;59166;48.908;1.870;2023-01-29T02:51:55;101791.63;;;-0.84;97.76
71361;BME280;59166;48.908;1.870;2023-01-29T02:57:00;101773.06;;;-0.84;98.30
71361;BME280;59166;48.908;1.870;2023-01-29T03:02:08;101765.28;;;-0.85;97.48
71361;BME280;59166;48.908;1.870;2023-01-29T03:07:14;101767.31;;;-0.79;97.79
71361;BME280;59166;48.908;1.870;2023-01-29T03:12:24;101770.28;;;-0.82;97.51
71361;BME280;59166;48.908;1.870;2023-01-29T03:17:31;101772.28;;;-0.94;98.90
71361;BME280;59166;48.908;1.870;2023-01-29T03:22:36;101763.97;;;-0.99;97.95
71361;BME280;59166;48.908;1.870;2023-01-29T03:27:39;101765.91;;;-1.01;97.60
71361;BME280;59166;48.908;1.870;2023-01-29T03:32:45;101771.38;;;-1.03;96.86
71361;BME280;59166;48.908;1.870;2023-01-29T03:37:48;101775.16;;;-1.05;97.54
71361;BME280;59166;48.908;1.870;2023-01-29T03:42:57;101770.75;;;-1.14;96.93
71361;BME280;59166;48.908;1.870;2023-01-29T03:48:07;101764.06;;;-1.18;97.04
71361;BME280;59166;48.908;1.870;2023-01-29T03:53:17;101761.88;;;-1.23;97.75
71361;BME280;59166;48.908;1.870;2023-01-29T03:58:25;101752.16;;;-1.32;98.17
71361;BME280;59166;48.908;1.870;2023-01-29T04:03:33;101758.81;;;-1.28;98.86
71361;BME280;59166;48.908;1.870;2023-01-29T04:08:38;101751.84;;;-1.29;98.32
71361;BME280;59166;48.908;1.870;2023-01-29T04:13:41;101764.44;;;-1.31;97.32
71361;BME280;59166;48.908;1.870;2023-01-29T04:18:46;101753.16;;;-1.33;96.80
71361;BME280;59166;48.908;1.870;2023-01-29T04:23:47;101757.38;;;-1.40;97.65
71361;BME280;59166;48.908;1.870;2023-01-29T04:28:54;101759.78;;;-1.47;98.00
71361;BME280;59166;48.908;1.870;2023-01-29T04:34:07;101756.28;;;-1.47;98.01
71361;BME280;59166;48.908;1.870;2023-01-29T04:39:17;101751.00;;;-1.47;99.42
71361;BME280;59166;48.908;1.870;2023-01-29T04:44:22;101753.94;;;-1.50;98.05
71361;BME280;59166;48.908;1.870;2023-01-29T04:49:32;101761.19;;;-1.52;98.44
71361;BME280;59166;48.908;1.870;2023-01-29T04:54:46;101766.22;;;-1.59;98.75
71361;BME280;59166;48.908;1.870;2023-01-29T04:59:52;101770.97;;;-1.62;99.67
71361;BME280;59166;48.908;1.870;2023-01-29T05:04:58;101761.09;;;-1.70;100.00
71361;BME280;59166;48.908;1.870;2023-01-29T05:09:59;101763.50;;;-1.76;100.00
71361;BME280;59166;48.908;1.870;2023-01-29T05:15:02;101760.19;;;-1.78;100.00
71361;BME280;59166;48.908;1.870;2023-01-29T05:20:06;101750.72;;;-1.81;100.00
71361;BME280;59166;48.908;1.870;2023-01-29T05:25:19;101752.81;;;-1.84;100.00
71361;BME280;59166;48.908;1.870;2023-01-29T05:30:20;101751.25;;;-1.77;99.99
71361;BME280;59166;48.908;1.870;2023-01-29T05:35:22;101750.41;;;-1.78;99.32
71361;BME280;59166;48.908;1.870;2023-01-29T05:40:23;101758.78;;;-1.82;98.68
71361;BME280;59166;48.908;1.870;2023-01-29T05:45:24;101756.44;;;-1.85;99.22
71361;BME280;59166;48.908;1.870;2023-01-29T05:50:26;101760.88;;;-1.86;99.30
71361;BME280;59166;48.908;1.870;2023-01-29T05:55:27;101765.09;;;-1.83;99.12
71361;BME280;59166;48.908;1.870;2023-01-29T06:00:28;101768.53;;;-1.83;98.98
71361;BME280;59166;48.908;1.870;2023-01-29T06:05:31;101780.25;;;-1.85;99.02
71361;BME280;59166;48.908;1.870;2023-01-29T06:10:31;101778.59;;;-1.86;99.36
71361;BME280;59166;48.908;1.870;2023-01-29T06:15:32;101763.00;;;-1.89;98.84
71361;BME280;59166;48.908;1.870;2023-01-29T06:20:34;101756.75;;;-1.98;99.32
71361;BME280;59166;48.908;1.870;2023-01-29T06:25:34;101764.53;;;-1.97;98.92
71361;BME280;59166;48.908;1.870;2023-01-29T06:30:35;101774.44;;;-1.99;98.88
71361;BME280;59166;48.908;1.870;2023-01-29T06:35:37;101778.34;;;-2.03;98.43
71361;BME280;59166;48.908;1.870;2023-01-29T06:40:38;101777.41;;;-2.11;98.79
71361;BME280;59166;48.908;1.870;2023-01-29T06:45:45;101778.69;;;-2.25;100.00
71361;BME280;59166;48.908;1.870;2023-01-29T06:50:47;101787.19;;;-2.31;100.00
71361;BME280;59166;48.908;1.870;2023-01-29T06:55:51;101779.66;;;-2.35;100.00
71361;BME280;59166;48.908;1.870;2023-01-29T07:00:52;101789.41;;;-2.26;100.00
71361;BME280;59166;48.908;1.870;2023-01-29T07:05:54;101785.63;;;-2.24;100.00
71361;BME280;59166;48.908;1.870;2023-01-29T07:10:58;101783.69;;;-2.22;100.00
71361;BME280;59166;48.908;1.870;2023-01-29T07:15:59;101780.34;;;-2.24;100.00
71361;BME280;59166;48.908;1.870;2023-01-29T07:21:04;101780.50;;;-2.25;99.88
71361;BME280;59166;48.908;1.870;2023-01-29T07:26:05;101784.09;;;-2.26;100.00
71361;BME280;59166;48.908;1.870;2023-01-29T07:31:07;101789.56;;;-2.28;100.00
71361;BME280;59166;48.908;1.870;2023-01-29T07:36:11;101796.66;;;-2.28;100.00
71361;BME280;59166;48.908;1.870;2023-01-29T07:41:12;101792.88;;;-2.26;100.00
71361;BME280;59166;48.908;1.870;2023-01-29T07:46:12;101789.00;;;-2.22;100.00
71361;BME280;59166;48.908;1.870;2023-01-29T07:51:14;101777.44;;;-2.21;100.00
71361;BME280;59166;48.908;1.870;2023-01-29T07:56:15;101771.44;;;-2.23;100.00
71361;BME280;59166;48.908;1.870;2023-01-29T08:01:16;101772.94;;;-2.20;100.00
71361;BME280;59166;48.908;1.870;2023-01-29T08:06:18;101785.63;;;-2.14;100.00
71361;BME280;59166;48.908;1.870;2023-01-29T08:11:18;101792.84;;;-2.07;100.00
71361;BME280;59166;48.908;1.870;2023-01-29T08:16:19;101797.69;;;-1.92;100.00
71361;BME280;59166;48.908;1.870;2023-01-29T08:21:21;101801.72;;;-1.79;100.00
71361;BME280;59166;48.908;1.870;2023-01-29T08:26:22;101794.44;;;-1.67;100.00
71361;BME280;59166;48.908;1.870;2023-01-29T08:31:22;101783.63;;;-1.56;100.00
71361;BME280;59166;48.908;1.870;2023-01-29T08:36:24;101790.31;;;-1.52;100.00
71361;BME280;59166;48.908;1.870;2023-01-29T08:41:25;101799.47;;;-1.37;100.00
71361;BME280;59166;48.908;1.870;2023-01-29T08:46:25;101793.72;;;-1.32;100.00
71361;BME280;59166;48.908;1.870;2023-01-29T08:51:27;101805.81;;;-1.20;100.00
71361;BME280;59166;48.908;1.870;2023-01-29T08:56:28;101800.66;;;-1.22;100.00
71361;BME280;59166;48.908;1.870;2023-01-29T09:01:29;101820.56;;;-0.90;100.00
71361;BME280;59166;48.908;1.870;2023-01-29T09:06:31;101828.50;;;-0.63;100.00
71361;BME280;59166;48.908;1.870;2023-01-29T09:11:31;101824.63;;;-0.33;99.16
71361;BME280;59166;48.908;1.870;2023-01-29T09:16:32;101835.16;;;-0.24;100.00
71361;BME280;59166;48.908;1.870;2023-01-29T09:21:34;101834.19;;;-0.23;100.00
71361;BME280;59166;48.908;1.870;2023-01-29T09:26:34;101833.03;;;-0.20;100.00
71361;BME280;59166;48.908;1.870;2023-01-29T09:31:35;101831.63;;;-0.15;100.00
71361;BME280;59166;48.908;1.870;2023-01-29T09:36:37;101837.47;;;-0.11;100.00
71361;BME280;59166;48.908;1.870;2023-01-29T09:41:47;101828.03;;;-0.06;100.00
71361;BME280;59166;48.908;1.870;2023-01-29T09:46:53;101849.09;;;-0.04;100.00
71361;BME280;59166;48.908;1.870;2023-01-29T09:52:00;101855.47;;;0.03;100.00
71361;BME280;59166;48.908;1.870;2023-01-29T09:57:02;101830.34;;;0.15;100.00
71361;BME280;59166;48.908;1.870;2023-01-29T10:02:09;101833.56;;;0.27;100.00
71361;BME280;59166;48.908;1.870;2023-01-29T10:07:25;101835.97;;;0.38;100.00
71361;BME280;59166;48.908;1.870;2023-01-29T10:12:42;101827.56;;;0.50;100.00
71361;BME280;59166;48.908;1.870;2023-01-29T10:17:56;101817.81;;;0.59;100.00
71361;BME280;59166;48.908;1.870;2023-01-29T10:23:10;101818.22;;;0.72;100.00
71361;BME280;59166;48.908;1.870;2023-01-29T10:28:17;101814.91;;;0.78;99.68
71361;BME280;59166;48.908;1.870;2023-01-29T10:33:26;101809.63;;;0.86;99.12
71361;BME280;59166;48.908;1.870;2023-01-29T10:38:43;101807.50;;;0.98;99.41
71361;BME280;59166;48.908;1.870;2023-01-29T10:43:51;101808.72;;;1.11;99.09
71361;BME280;59166;48.908;1.870;2023-01-29T10:49:00;101805.09;;;1.21;99.09
71361;BME280;59166;48.908;1.870;2023-01-29T10:54:20;101804.28;;;1.36;98.92
71361;BME280;59166;48.908;1.870;2023-01-29T10:59:35;101791.97;;;1.51;99.18
71361;BME280;59166;48.908;1.870;2023-01-29T11:04:39;101797.31;;;1.59;99.10
71361;BME280;59166;48.908;1.870;2023-01-29T11:09:43;101787.19;;;1.63;98.55
71361;BME280;59166;48.908;1.870;2023-01-29T11:14:49;101777.03;;;1.67;98.68
71361;BME280;59166;48.908;1.870;2023-01-29T11:19:53;101777.84;;;1.75;98.23
71361;BME280;59166;48.908;1.870;2023-01-29T11:25:09;101770.84;;;1.90;98.32
71361;BME280;59166;48.908;1.870;2023-01-29T11:30:19;101760.03;;;1.92;97.70
71361;BME280;59166;48.908;1.870;2023-01-29T11:35:23;101756.84;;;2.04;97.76
71361;BME280;59166;48.908;1.870;2023-01-29T11:40:37;101750.50;;;2.05;96.87
71361;BME280;59166;48.908;1.870;2023-01-29T11:45:38;101748.00;;;2.12;96.95
71361;BME280;59166;48.908;1.870;2023-01-29T11:50:39;101741.81;;;2.20;96.75
71361;BME280;59166;48.908;1.870;2023-01-29T11:55:44;101740.75;;;2.37;96.62
71361;BME280;59166;48.908;1.870;2023-01-29T12:00:48;101739.75;;;2.46;95.88
71361;BME280;59166;48.908;1.870;2023-01-29T12:05:54;101735.69;;;2.58;96.26
71361;BME280;59166;48.908;1.870;2023-01-29T12:11:08;101722.47;;;2.73;96.40
71361;BME280;59166;48.908;1.870;2023-01-29T12:16:18;101709.88;;;2.89;95.29
71361;BME280;59166;48.908;1.870;2023-01-29T12:21:27;101699.44;;;3.02;94.59
71361;BME280;59166;48.908;1.870;2023-01-29T12:26:33;101700.31;;;3.17;94.72
71361;BME280;59166;48.908;1.870;2023-01-29T12:31:41;101693.19;;;3.33;95.16
71361;BME280;59166;48.908;1.870;2023-01-29T12:36:47;101680.22;;;3.44;94.85
71361;BME280;59166;48.908;1.870;2023-01-29T12:41:53;101681.38;;;3.50;92.71
71361;BME280;59166;48.908;1.870;2023-01-29T12:46:59;101674.31;;;3.57;93.11
71361;BME280;59166;48.908;1.870;2023-01-29T12:52:12;101663.53;;;3.65;92.76
71361;BME280;59166;48.908;1.870;2023-01-29T12:57:22;101659.78;;;3.74;91.64
71361;BME280;59166;48.908;1.870;2023-01-29T13:02:31;101643.84;;;3.81;90.47
71361;BME280;59166;48.908;1.870;2023-01-29T13:07:37;101649.84;;;3.97;86.26
71361;BME280;59166;48.908;1.870;2023-01-29T13:12:49;101643.81;;;3.95;87.35
71361;BME280;59166;48.908;1.870;2023-01-29T13:17:54;101636.09;;;4.00;86.94
71361;BME280;59166;48.908;1.870;2023-01-29T13:22:58;101620.47;;;4.18;84.29
71361;BME280;59166;48.908;1.870;2023-01-29T13:28:03;101609.59;;;4.20;83.46
71361;BME280;59166;48.908;1.870;2023-01-29T13:33:05;101597.97;;;4.28;82.43
71361;BME280;59166;48.908;1.870;2023-01-29T13:38:22;101604.63;;;4.32;80.46
71361;BME280;59166;48.908;1.870;2023-01-29T13:43:26;101598.44;;;4.31;79.40
71361;BME280;59166;48.908;1.870;2023-01-29T13:48:31;101585.91;;;4.32;79.75
71361;BME280;59166;48.908;1.870;2023-01-29T13:53:35;101565.81;;;4.42;79.42
71361;BME280;59166;48.908;1.870;2023-01-29T13:58:55;101557.41;;;4.45;79.81
71361;BME280;59166;48.908;1.870;2023-01-29T14:03:56;101558.91;;;4.48;78.46
71361;BME280;59166;48.908;1.870;2023-01-29T14:08:58;101553.19;;;4.51;77.81
71361;BME280;59166;48.908;1.870;2023-01-29T14:14:00;101541.47;;;4.52;78.38
71361;BME280;59166;48.908;1.870;2023-01-29T14:19:02;101532.78;;;4.50;77.27
71361;BME280;59166;48.908;1.870;2023-01-29T14:24:10;101530.75;;;4.52;78.66
71361;BME280;59166;48.908;1.870;2023-01-29T14:29:19;101523.81;;;4.57;78.40
71361;BME280;59166;48.908;1.870;2023-01-29T14:34:27;101532.97;;;4.69;76.09
71361;BME280;59166;48.908;1.870;2023-01-29T14:39:34;101533.41;;;4.73;75.82
71361;BME280;59166;48.908;1.870;2023-01-29T14:44:52;101533.56;;;4.65;77.96
71361;BME280;59166;48.908;1.870;2023-01-29T14:49:57;101525.09;;;4.61;77.69
71361;BME280;59166;48.908;1.870;2023-01-29T14:54:59;101528.53;;;4.55;77.86
71361;BME280;59166;48.908;1.870;2023-01-29T15:00:05;101530.63;;;4.60;77.96
71361;BME280;59166;48.908;1.870;2023-01-29T15:05:09;101524.19;;;4.54;76.26
71361;BME280;59166;48.908;1.870;2023-01-29T15:10:16;101528.66;;;4.47;79.04
71361;BME280;59166;48.908;1.870;2023-01-29T15:15:27;101532.16;;;4.48;76.73
71361;BME280;59166;48.908;1.870;2023-01-29T15:20:33;101533.06;;;4.55;80.04
71361;BME280;59166;48.908;1.870;2023-01-29T15:25:36;101539.59;;;4.52;79.94
71361;BME280;59166;48.908;1.870;2023-01-29T15:30:51;101536.84;;;4.46;79.68
71361;BME280;59166;48.908;1.870;2023-01-29T15:35:54;101537.00;;;4.38;79.74
71361;BME280;59166;48.908;1.870;2023-01-29T15:40:58;101533.47;;;4.37;79.41
71361;BME280;59166;48.908;1.870;2023-01-29T15:46:01;101533.09;;;4.40;81.11
71361;BME280;59166;48.908;1.870;2023-01-29T15:51:06;101544.56;;;4.34;79.94
71361;BME280;59166;48.908;1.870;2023-01-29T15:56:08;101535.16;;;4.38;79.42
71361;BME280;59166;48.908;1.870;2023-01-29T16:01:12;101529.78;;;4.38;79.84
71361;BME280;59166;48.908;1.870;2023-01-29T16:06:13;101524.63;;;4.37;78.88
71361;BME280;59166;48.908;1.870;2023-01-29T16:11:14;101534.41;;;4.30;80.49
71361;BME280;59166;48.908;1.870;2023-01-29T16:16:22;101530.34;;;4.34;79.32
71361;BME280;59166;48.908;1.870;2023-01-29T16:21:26;101535.88;;;4.32;81.58
71361;BME280;59166;48.908;1.870;2023-01-29T16:26:31;101533.59;;;4.29;82.35
71361;BME280;59166;48.908;1.870;2023-01-29T16:31:37;101536.09;;;4.31;81.96
71361;BME280;59166;48.908;1.870;2023-01-29T16:36:43;101541.16;;;4.26;81.38
71361;BME280;59166;48.908;1.870;2023-01-29T16:41:44;101544.03;;;4.24;81.41
71361;BME280;59166;48.908;1.870;2023-01-29T16:47:10;101538.03;;;4.22;82.68
71361;BME280;59166;48.908;1.870;2023-01-29T16:52:19;101545.34;;;4.13;82.93
71361;BME280;59166;48.908;1.870;2023-01-29T16:57:24;101548.84;;;4.14;85.13
71361;BME280;59166;48.908;1.870;2023-01-29T17:02:28;101556.03;;;4.13;84.67
71361;BME280;59166;48.908;1.870;2023-01-29T17:07:30;101563.69;;;4.16;84.98
71361;BME280;59166;48.908;1.870;2023-01-29T17:12:32;101562.69;;;4.17;84.44
71361;BME280;59166;48.908;1.870;2023-01-29T17:17:35;101564.44;;;4.10;86.99
71361;BME280;59166;48.908;1.870;2023-01-29T17:22:36;101562.78;;;4.09;84.78
71361;BME280;59166;48.908;1.870;2023-01-29T17:27:39;101567.19;;;4.17;84.37
71361;BME280;59166;48.908;1.870;2023-01-29T17:32:41;101566.91;;;4.12;84.29
71361;BME280;59166;48.908;1.870;2023-01-29T17:37:42;101576.06;;;4.17;84.17
71361;BME280;59166;48.908;1.870;2023-01-29T17:42:43;101561.56;;;4.12;86.28
71361;BME280;59166;48.908;1.870;2023-01-29T17:47:45;101567.13;;;4.10;86.45
71361;BME280;59166;48.908;1.870;2023-01-29T17:52:46;101573.56;;;4.16;86.75
71361;BME280;59166;48.908;1.870;2023-01-29T17:57:47;101575.22;;;4.17;85.26
71361;BME280;59166;48.908;1.870;2023-01-29T18:02:49;101573.47;;;4.09;85.90
71361;BME280;59166;48.908;1.870;2023-01-29T18:07:49;101569.97;;;4.09;86.85
71361;BME280;59166;48.908;1.870;2023-01-29T18:12:50;101573.22;;;4.04;87.70
71361;BME280;59166;48.908;1.870;2023-01-29T18:17:52;101562.53;;;4.04;88.34
71361;BME280;59166;48.908;1.870;2023-01-29T18:22:53;101559.56;;;3.99;89.24
71361;BME280;59166;48.908;1.870;2023-01-29T18:27:53;101553.97;;;3.94;90.67
71361;BME280;59166;48.908;1.870;2023-01-29T18:32:56;101552.94;;;3.95;91.32
71361;BME280;59166;48.908;1.870;2023-01-29T18:37:56;101557.66;;;3.93;91.42
71361;BME280;59166;48.908;1.870;2023-01-29T18:42:57;101555.22;;;3.98;91.76
71361;BME280;59166;48.908;1.870;2023-01-29T18:47:59;101550.47;;;3.94;91.90
71361;BME280;59166;48.908;1.870;2023-01-29T18:53:00;101551.22;;;3.88;92.73
71361;BME280;59166;48.908;1.870;2023-01-29T18:58:01;101532.84;;;3.85;93.38
71361;BME280;59166;48.908;1.870;2023-01-29T19:03:03;101535.44;;;3.93;93.51
71361;BME280;59166;48.908;1.870;2023-01-29T19:08:04;101537.94;;;3.94;93.67
71361;BME280;59166;48.908;1.870;2023-01-29T19:13:05;101522.63;;;3.88;93.53
71361;BME280;59166;48.908;1.870;2023-01-29T19:18:07;101523.81;;;3.86;93.93
71361;BME280;59166;48.908;1.870;2023-01-29T19:23:07;101514.13;;;3.85;94.76
71361;BME280;59166;48.908;1.870;2023-01-29T19:28:08;101508.00;;;3.84;93.97
71361;BME280;59166;48.908;1.870;2023-01-29T19:33:10;101500.59;;;3.86;94.91
71361;BME280;59166;48.908;1.870;2023-01-29T19:38:11;101497.75;;;3.88;94.99
71361;BME280;59166;48.908;1.870;2023-01-29T19:43:11;101488.53;;;3.90;94.76
71361;BME280;59166;48.908;1.870;2023-01-29T19:48:13;101479.41;;;3.85;94.02
71361;BME280;59166;48.908;1.870;2023-01-29T19:53:14;101489.81;;;3.94;94.13
71361;BME280;59166;48.908;1.870;2023-01-29T19:58:15;101483.81;;;3.92;93.41
71361;BME280;59166;48.908;1.870;2023-01-29T20:03:17;101491.66;;;3.94;94.48
71361;BME280;59166;48.908;1.870;2023-01-29T20:08:18;101486.22;;;3.87;94.40
71361;BME280;59166;48.908;1.870;2023-01-29T20:13:18;101488.16;;;3.93;94.05
71361;BME280;59166;48.908;1.870;2023-01-29T20:18:21;101484.00;;;3.91;93.65
71361;BME280;59166;48.908;1.870;2023-01-29T20:23:22;101490.38;;;3.90;94.86
71361;BME280;59166;48.908;1.870;2023-01-29T20:28:23;101498.84;;;3.93;94.86
71361;BME280;59166;48.908;1.870;2023-01-29T20:33:30;101494.94;;;3.96;94.05
71361;BME280;59166;48.908;1.870;2023-01-29T21:59:08;101444.38;;;3.94;94.70
71361;BME280;59166;48.908;1.870;2023-01-29T22:04:09;101466.38;;;3.96;94.06
71361;BME280;59166;48.908;1.870;2023-01-29T22:09:11;101442.50;;;3.95;94.68
71361;BME280;59166;48.908;1.870;2023-01-29T22:14:11;101437.81;;;3.97;94.50
71361;BME280;59166;48.908;1.870;2023-01-29T22:19:12;101434.69;;;3.93;94.66
71361;BME280;59166;48.908;1.870;2023-01-29T22:24:14;101448.28;;;3.98;93.90
71361;BME280;59166;48.908;1.870;2023-01-29T22:29:15;101429.13;;;3.95;94.69
71361;BME280;59166;48.908;1.870;2023-01-29T22:34:15;101439.28;;;3.99;95.15
71361;BME280;59166;48.908;1.870;2023-01-29T22:39:18;101442.31;;;3.96;95.06
71361;BME280;59166;48.908;1.870;2023-01-29T22:44:18;101456.13;;;4.00;95.33
71361;BME280;59166;48.908;1.870;2023-01-29T22:49:19;101476.75;;;4.06;93.56
71361;BME280;59166;48.908;1.870;2023-01-29T22:54:21;101487.00;;;4.02;94.11
71361;BME280;59166;48.908;1.870;2023-01-29T22:59:21;101495.41;;;3.99;93.82
71361;BME280;59166;48.908;1.870;2023-01-29T23:04:22;101512.84;;;3.95;94.03
71361;BME280;59166;48.908;1.870;2023-01-29T23:09:24;101514.22;;;3.91;95.65
71361;BME280;59166;48.908;1.870;2023-01-29T23:14:25;101510.66;;;3.84;95.14
71361;BME280;59166;48.908;1.870;2023-01-29T23:19:25;101510.94;;;3.75;96.43
71361;BME280;59166;48.908;1.870;2023-01-29T23:24:27;101484.66;;;3.78;98.84
71361;BME280;59166;48.908;1.870;2023-01-29T23:29:30;101459.22;;;3.82;98.89
71361;BME280;59166;48.908;1.870;2023-01-29T23:34:30;101433.16;;;3.84;99.00
71361;BME280;59166;48.908;1.870;2023-01-29T23:39:34;101415.84;;;3.80;99.29
71361;BME280;59166;48.908;1.870;2023-01-29T23:44:35;101420.53;;;3.78;99.35
71361;BME280;59166;48.908;1.870;2023-01-29T23:49:36;101440.00;;;3.72;99.44
71361;BME280;59166;48.908;1.870;2023-01-29T23:54:38;101429.97;;;3.74;99.55
71361;BME280;59166;48.908;1.870;2023-01-29T23:59:38;101437.22;;;3.80;99.87
